Time;durP1;ratioP1;P1;durP2;ratioP2;P2;SDS_P1;SDS_P2;PMS_P1;PMS_P2;Temp;Humidity;BMP_temperature;BMP_pressure;BME280_temperature;BME280_humidity;BME280_pressure;Samples;Min_cycle;Max_cycle;Signal;HPM_P1;HPM_P2
2023/04/05 00:00:42;;;;;;;5.25;4.80;;;;;;;4.81;77.58;102562.28;4976802;28;20058;-84
2023/04/05 00:03:09;;;;;;;7.15;5.32;;;;;;;4.80;77.71;102562.25;4978220;28;20047;-84
2023/04/05 00:05:35;;;;;;;5.85;5.20;;;;;;;4.78;77.77;102570.03;4976653;28;20273;-84
2023/04/05 00:08:02;;;;;;;7.45;5.53;;;;;;;4.76;77.92;102557.88;4981587;28;20037;-84
2023/04/05 00:10:29;;;;;;;6.38;5.13;;;;;;;4.73;78.01;102560.44;4982665;28;20030;-85
2023/04/05 00:12:55;;;;;;;6.15;5.55;;;;;;;4.71;77.94;102552.66;4982366;28;20088;-84
2023/04/05 00:15:21;;;;;;;6.95;5.50;;;;;;;4.70;78.14;102557.81;4981490;28;20082;-84
2023/04/05 00:17:46;;;;;;;7.53;5.80;;;;;;;4.68;78.27;102556.94;4980710;28;20027;-84
2023/04/05 00:20:12;;;;;;;7.90;6.30;;;;;;;4.66;78.31;102554.31;4961957;29;20038;-84
2023/04/05 00:22:37;;;;;;;5.65;5.15;;;;;;;4.64;78.42;102552.56;4973543;28;20042;-84
2023/04/05 00:25:04;;;;;;;6.60;5.35;;;;;;;4.61;78.54;102549.06;4981391;28;20027;-84
2023/04/05 00:27:30;;;;;;;5.75;5.25;;;;;;;4.60;78.45;102544.75;4982485;28;20043;-84
2023/04/05 00:29:55;;;;;;;5.35;4.85;;;;;;;4.58;78.71;102551.66;4980819;28;20043;-84
2023/04/05 00:32:21;;;;;;;4.95;4.47;;;;;;;4.56;78.62;102540.34;4956773;29;20039;-84
2023/04/05 00:34:46;;;;;;;6.88;5.60;;;;;;;4.56;78.68;102549.88;4962284;28;20053;-85
2023/04/05 00:37:11;;;;;;;6.00;5.40;;;;;;;4.53;78.75;102547.22;4980764;28;20038;-85
2023/04/05 00:39:38;;;;;;;7.60;5.53;;;;;;;4.51;78.98;102547.25;4980008;28;20101;-84
2023/04/05 00:42:05;;;;;;;5.38;4.88;;;;;;;4.51;78.82;102543.75;4981777;28;20038;-84
2023/04/05 00:44:33;;;;;;;5.65;5.15;;;;;;;4.48;78.95;102538.56;4980685;28;20334;-84
2023/04/05 00:47:08;;;;;;;7.90;5.55;;;;;;;4.47;79.02;102534.19;4980915;28;20027;-84
2023/04/05 00:49:35;;;;;;;6.65;5.18;;;;;;;4.45;79.09;102533.31;4981530;28;20037;-84
2023/04/05 00:52:01;;;;;;;5.90;5.32;;;;;;;4.43;79.19;102538.47;4982065;28;20259;-84
2023/04/05 00:54:28;;;;;;;5.90;5.22;;;;;;;4.41;79.22;102533.28;4980455;28;20093;-84
2023/04/05 00:56:58;;;;;;;5.72;5.03;;;;;;;4.38;79.29;102541.03;4981431;28;20023;-84
2023/04/05 00:59:25;;;;;;;5.80;5.20;;;;;;;4.37;79.38;102528.91;4981980;28;20245;-84
2023/04/05 01:01:59;;;;;;;7.40;5.35;;;;;;;4.36;79.38;102532.34;4980023;28;20030;-84
2023/04/05 01:04:26;;;;;;;5.95;5.32;;;;;;;4.35;79.50;102532.34;4980474;28;20077;-84
2023/04/05 01:06:58;;;;;;;6.28;5.47;;;;;;;4.33;79.46;102526.25;4981253;28;20038;-84
2023/04/05 01:09:52;;;;;;;6.28;5.60;;;;;;;4.31;79.56;102521.06;4981675;28;20034;-84
2023/04/05 01:12:19;;;;;;;6.68;5.20;;;;;;;4.30;79.54;102519.31;4981490;28;20034;-84
2023/04/05 01:14:48;;;;;;;6.80;5.60;;;;;;;4.27;79.59;102516.66;4980868;28;20053;-84
2023/04/05 01:17:15;;;;;;;5.88;5.28;;;;;;;4.26;79.70;102517.53;4981395;28;20031;-84
2023/04/05 01:19:41;;;;;;;7.20;5.60;;;;;;;4.25;79.61;102523.56;4980408;28;20081;-84
2023/04/05 01:22:25;;;;;;;5.82;5.32;;;;;;;4.23;79.82;102514.91;4981180;28;20065;-84
2023/04/05 01:25:09;;;;;;;6.45;5.50;;;;;;;4.20;79.83;102509.66;4980611;28;20314;-84
2023/04/05 01:28:02;;;;;;;6.95;5.57;;;;;;;4.18;79.85;102506.19;4980597;28;20030;-84
2023/04/05 01:30:38;;;;;;;5.93;5.35;;;;;;;4.15;79.95;102506.16;4981298;28;20094;-84
2023/04/05 01:33:15;;;;;;;5.43;5.00;;;;;;;4.12;79.84;102501.78;4979685;28;20069;-84
2023/04/05 01:36:09;;;;;;;7.35;6.18;;;;;;;4.10;79.84;102494.84;4979241;28;20057;-85
2023/04/05 01:38:38;;;;;;;8.27;5.47;;;;;;;4.08;80.05;102501.75;4978418;28;20030;-84
2023/04/05 01:41:04;;;;;;;5.68;5.15;;;;;;;4.04;80.10;102496.50;4980871;28;20033;-84
2023/04/05 01:43:29;;;;;;;7.43;5.78;;;;;;;4.02;80.07;102498.22;4980946;28;20349;-84
2023/04/05 01:45:55;;;;;;;5.22;4.72;;;;;;;4.01;80.16;102495.59;4980644;28;20093;-84
2023/04/05 01:48:20;;;;;;;6.13;5.53;;;;;;;3.97;80.21;102493.81;4963303;28;20038;-84
2023/04/05 01:50:45;;;;;;;5.72;5.22;;;;;;;3.96;80.26;102482.56;4963001;28;20266;-84
2023/04/05 01:53:11;;;;;;;5.68;5.22;;;;;;;3.92;80.22;102475.59;4980648;28;20238;-85
2023/04/05 01:55:36;;;;;;;5.63;5.03;;;;;;;3.91;80.34;102479.06;4978695;28;20038;-84
2023/04/05 01:58:02;;;;;;;6.13;5.60;;;;;;;3.90;80.49;102476.44;4980339;28;20054;-84
2023/04/05 02:00:27;;;;;;;5.70;5.20;;;;;;;3.88;80.50;102473.84;4979287;28;20293;-84
2023/04/05 02:02:53;;;;;;;5.47;4.93;;;;;;;3.85;80.44;102473.78;4979209;28;20093;-84
2023/04/05 02:05:18;;;;;;;5.72;5.13;;;;;;;3.85;80.59;102466.00;4980221;28;20030;-84
2023/04/05 02:07:44;;;;;;;6.30;5.63;;;;;;;3.85;80.73;102468.59;4980191;28;20053;-85
2023/04/05 02:10:09;;;;;;;5.93;5.32;;;;;;;3.84;80.71;102466.88;4978417;28;20057;-85
2023/04/05 02:12:35;;;;;;;5.72;5.22;;;;;;;3.82;80.81;102461.66;4958850;29;20253;-85
2023/04/05 02:15:00;;;;;;;5.35;4.95;;;;;;;3.82;80.63;102455.59;4961555;28;20066;-85
2023/04/05 02:17:32;;;;;;;6.90;5.38;;;;;;;3.81;80.95;102452.13;4959192;29;20039;-85
2023/04/05 02:20:01;;;;;;;6.20;5.65;;;;;;;3.79;80.90;102446.06;4963324;28;20279;-85
2023/04/05 02:22:27;;;;;;;6.30;5.70;;;;;;;3.78;80.73;102446.03;4978506;28;20041;-85
2023/04/05 02:24:52;;;;;;;8.27;5.72;;;;;;;3.76;80.83;102445.16;4979280;28;20338;-85
2023/04/05 02:27:18;;;;;;;7.35;5.75;;;;;;;3.74;80.82;102436.50;4979993;28;20113;-85
2023/04/05 02:29:43;;;;;;;6.30;5.70;;;;;;;3.72;80.86;102433.88;4978209;28;20057;-85
2023/04/05 02:32:09;;;;;;;7.72;5.88;;;;;;;3.71;80.85;102447.69;4962193;28;20090;-85
2023/04/05 02:34:35;;;;;;;6.75;6.07;;;;;;;3.69;80.83;102445.91;4977786;28;20157;-85
2023/04/05 02:37:01;;;;;;;6.45;5.85;;;;;;;3.67;80.92;102442.44;4962593;28;20038;-85
2023/04/05 02:39:27;;;;;;;6.45;5.85;;;;;;;3.65;80.93;102442.41;4977856;28;20242;-85
2023/04/05 02:41:53;;;;;;;8.55;5.95;;;;;;;3.62;80.89;102443.25;4962197;28;20034;-85
2023/04/05 02:44:19;;;;;;;6.80;6.10;;;;;;;3.61;81.00;102444.09;4980120;28;20042;-85
2023/04/05 02:46:44;;;;;;;7.07;6.40;;;;;;;3.58;81.00;102444.03;4977567;28;20369;-85
2023/04/05 02:49:10;;;;;;;6.57;5.97;;;;;;;3.57;80.96;102439.72;4962092;28;20030;-85
2023/04/05 02:51:35;;;;;;;7.13;6.43;;;;;;;3.54;81.03;102436.22;4977855;28;20039;-85
2023/04/05 02:54:02;;;;;;;6.65;5.97;;;;;;;3.52;81.10;102438.78;4961724;28;20064;-85
2023/04/05 02:56:28;;;;;;;7.32;6.22;;;;;;;3.50;81.14;102434.44;4978940;28;20038;-85
2023/04/05 02:58:53;;;;;;;7.22;6.15;;;;;;;3.49;81.10;102432.69;4978823;28;20076;-85
2023/04/05 03:01:19;;;;;;;6.53;5.93;;;;;;;3.45;81.42;102427.44;4978384;28;20282;-85
2023/04/05 03:03:44;;;;;;;7.57;6.78;;;;;;;3.43;81.13;102423.97;4977466;28;20045;-85
2023/04/05 03:06:10;;;;;;;6.72;6.07;;;;;;;3.43;81.19;102425.69;4962493;28;20066;-85
2023/04/05 03:08:42;;;;;;;6.75;6.10;;;;;;;3.41;81.16;102423.09;4956753;28;20034;-85
2023/04/05 03:11:09;;;;;;;7.45;6.15;;;;;;;3.40;81.33;102428.25;4979056;28;20050;-85
2023/04/05 03:13:35;;;;;;;6.40;5.80;;;;;;;3.39;81.29;102427.38;4978498;28;20046;-85
2023/04/05 03:16:02;;;;;;;6.95;5.95;;;;;;;3.36;81.46;102424.72;4979294;28;20271;-85
2023/04/05 03:18:30;;;;;;;6.28;5.63;;;;;;;3.35;81.45;102420.41;4979146;28;20058;-85
2023/04/05 03:20:56;;;;;;;5.63;5.13;;;;;;;3.33;81.51;102424.72;4961999;28;20039;-85
2023/04/05 03:23:27;;;;;;;6.10;5.50;;;;;;;3.33;81.59;102426.41;4979373;28;20038;-85
2023/04/05 03:26:00;;;;;;;6.00;5.50;;;;;;;3.32;81.79;102429.88;4977714;28;20234;-85
2023/04/05 03:28:26;;;;;;;6.05;5.55;;;;;;;3.30;81.70;102424.66;4978992;28;20038;-85
2023/04/05 03:30:51;;;;;;;6.22;5.57;;;;;;;3.27;81.58;102429.78;4978807;28;20039;-85
2023/04/05 03:33:17;;;;;;;6.63;5.93;;;;;;;3.27;81.72;102427.19;4977738;28;20358;-85
2023/04/05 03:35:43;;;;;;;7.40;5.13;;;;;;;3.25;81.86;102418.53;4961412;28;20073;-85
2023/04/05 03:38:08;;;;;;;6.38;5.65;;;;;;;3.24;81.68;102422.00;4977949;28;20062;-85
2023/04/05 03:40:34;;;;;;;6.22;5.43;;;;;;;3.22;81.70;102418.47;4960462;28;20039;-85
2023/04/05 03:42:59;;;;;;;5.80;5.30;;;;;;;3.19;81.81;102416.72;4964301;28;20038;-85
2023/04/05 03:45:25;;;;;;;6.00;5.40;;;;;;;3.20;81.92;102412.41;4965366;28;20063;-85
2023/04/05 03:47:52;;;;;;;5.00;4.60;;;;;;;3.19;81.98;102416.72;4965378;28;20353;-85
2023/04/05 03:50:17;;;;;;;6.05;5.05;;;;;;;3.19;82.08;102408.97;4982703;28;20045;-85
2023/04/05 03:52:43;;;;;;;5.60;5.10;;;;;;;3.16;82.24;102401.13;4965055;28;20042;-85
2023/04/05 03:55:08;;;;;;;4.93;4.53;;;;;;;3.15;82.09;102399.41;4965157;28;20301;-85
2023/04/05 03:57:36;;;;;;;6.22;5.43;;;;;;;3.14;82.21;102404.56;4981087;28;20049;-85
2023/04/05 04:00:12;;;;;;;6.40;5.80;;;;;;;3.13;82.22;102408.88;4982782;28;20033;-85
2023/04/05 04:02:39;;;;;;;5.63;5.20;;;;;;;3.13;82.24;102407.97;4961557;29;20298;-85
2023/04/05 04:05:05;;;;;;;4.88;4.47;;;;;;;3.11;82.45;102400.22;4973596;28;20313;-85
2023/04/05 04:07:30;;;;;;;5.45;4.95;;;;;;;3.11;82.55;102391.56;4965109;28;20225;-84
2023/04/05 04:09:56;;;;;;;6.45;5.80;;;;;;;3.10;82.62;102397.59;4963768;28;20042;-85
2023/04/05 04:12:21;;;;;;;5.88;5.22;;;;;;;3.09;82.68;102399.31;4981342;28;20026;-85
2023/04/05 04:14:46;;;;;;;8.35;5.63;;;;;;;3.08;82.77;102401.03;4981486;28;20054;-85
2023/04/05 04:17:28;;;;;;;5.65;5.10;;;;;;;3.08;82.78;102397.56;4964588;28;20026;-85
2023/04/05 04:19:54;;;;;;;5.43;4.93;;;;;;;3.07;82.88;102401.88;4982002;28;20141;-85
2023/04/05 04:22:19;;;;;;;6.22;5.15;;;;;;;3.06;83.01;102394.97;4981323;28;20046;-85
2023/04/05 04:24:48;;;;;;;4.97;4.57;;;;;;;3.05;83.00;102402.69;4960671;28;20039;-85
2023/04/05 04:27:15;;;;;;;5.68;4.65;;;;;;;3.04;83.10;102398.38;4963235;28;20110;-85
2023/04/05 04:29:45;;;;;;;5.32;4.82;;;;;;;3.03;83.26;102396.63;4980470;28;20046;-85
2023/04/05 04:32:11;;;;;;;5.18;4.78;;;;;;;3.01;83.17;102396.59;4965062;28;20076;-85
2023/04/05 04:34:37;;;;;;;5.43;4.93;;;;;;;3.01;83.22;102393.16;4979982;28;20258;-85
2023/04/05 04:37:03;;;;;;;5.82;5.28;;;;;;;3.00;83.45;102397.47;4981405;28;20041;-85
2023/04/05 04:39:30;;;;;;;5.05;4.57;;;;;;;2.98;83.49;102393.94;4947345;28;20062;-85
2023/04/05 04:41:56;;;;;;;5.50;4.80;;;;;;;2.98;83.48;102393.94;4980118;28;20291;-85
2023/04/05 04:44:27;;;;;;;5.45;4.90;;;;;;;2.97;83.55;102388.78;4981011;28;20098;-85
2023/04/05 04:46:53;;;;;;;5.10;4.60;;;;;;;2.96;83.71;102387.88;4980219;28;20038;-85
2023/04/05 04:49:20;;;;;;;5.20;4.80;;;;;;;2.96;83.63;102392.19;4980449;28;20101;-85
2023/04/05 04:51:46;;;;;;;5.85;4.65;;;;;;;2.94;83.87;102391.31;4981652;28;20043;-85
2023/04/05 04:54:11;;;;;;;5.22;4.82;;;;;;;2.93;83.93;102400.78;4960216;28;20046;-85
2023/04/05 04:56:37;;;;;;;5.75;5.07;;;;;;;2.93;84.02;102389.56;4979787;28;20298;-85
2023/04/05 04:59:02;;;;;;;6.97;5.80;;;;;;;2.91;83.95;102396.44;4945108;28;20039;-85
2023/04/05 05:01:28;;;;;;;6.85;4.72;;;;;;;2.90;84.02;102392.97;4976617;28;20057;-85
2023/04/05 05:03:53;;;;;;;7.20;4.72;;;;;;;2.89;84.29;102391.22;4979715;28;20031;-85
2023/04/05 05:06:20;;;;;;;4.70;4.30;;;;;;;2.88;84.15;102385.19;4980793;28;20080;-85
2023/04/05 05:08:46;;;;;;;5.75;5.25;;;;;;;2.87;84.35;102386.03;4980206;28;20053;-85
2023/04/05 05:11:12;;;;;;;5.38;4.97;;;;;;;2.86;84.27;102384.28;4958478;28;20039;-85
2023/04/05 05:13:38;;;;;;;5.72;5.00;;;;;;;2.87;84.57;102387.75;4969960;28;20206;-85
2023/04/05 05:16:04;;;;;;;5.68;5.15;;;;;;;2.86;84.43;102386.03;4979864;28;20053;-85
2023/04/05 05:18:30;;;;;;;6.60;6.00;;;;;;;2.86;84.56;102388.59;4997359;28;20097;-85
2023/04/05 05:20:55;;;;;;;6.93;6.20;;;;;;;2.84;84.58;102393.75;4980855;28;20411;-85
2023/04/05 05:23:20;;;;;;;6.50;5.90;;;;;;;2.86;84.63;102398.97;4981202;28;20054;-85
2023/04/05 05:25:46;;;;;;;7.63;5.82;;;;;;;2.86;84.74;102410.16;4968206;28;20030;-85
2023/04/05 05:28:11;;;;;;;6.13;5.63;;;;;;;2.84;85.09;102400.66;4980534;28;20083;-85
2023/04/05 05:30:37;;;;;;;6.40;5.80;;;;;;;2.85;85.32;102404.97;4949886;28;20114;-85
2023/04/05 05:33:03;;;;;;;7.95;6.35;;;;;;;2.84;85.07;102409.28;4978957;28;20046;-85
2023/04/05 05:35:28;;;;;;;6.22;5.63;;;;;;;2.84;85.25;102403.25;4968327;28;20034;-85
2023/04/05 05:37:54;;;;;;;7.35;6.53;;;;;;;2.84;85.40;102406.69;4943998;28;20342;-85
2023/04/05 05:40:19;;;;;;;7.55;6.65;;;;;;;2.83;85.39;102398.91;4955070;28;20346;-85
2023/04/05 05:42:45;;;;;;;8.10;6.75;;;;;;;2.86;85.34;102415.34;4978177;28;20214;-85
2023/04/05 05:45:10;;;;;;;7.45;6.65;;;;;;;2.85;85.48;102412.72;4979558;28;20085;-85
2023/04/05 05:47:36;;;;;;;8.40;6.93;;;;;;;2.86;85.49;102419.66;4959662;28;20038;-85
2023/04/05 05:50:02;;;;;;;6.53;5.90;;;;;;;2.85;85.62;102415.31;4970430;28;20049;-85
2023/04/05 05:52:28;;;;;;;6.80;6.10;;;;;;;2.84;85.93;102409.28;4943867;28;20277;-85
2023/04/05 05:54:53;;;;;;;8.00;6.43;;;;;;;2.84;85.69;102409.28;4960719;28;20112;-85
2023/04/05 05:57:19;;;;;;;7.07;6.45;;;;;;;2.85;85.86;102412.72;4946765;28;20054;-85
2023/04/05 05:59:44;;;;;;;8.98;7.15;;;;;;;2.86;85.84;102409.31;4978920;28;20173;-85
2023/04/05 06:02:10;;;;;;;9.35;7.60;;;;;;;2.86;85.99;102407.59;4962284;28;20278;-85
2023/04/05 06:04:36;;;;;;;8.90;7.57;;;;;;;2.88;85.89;102408.47;4978948;28;20031;-85
2023/04/05 06:07:03;;;;;;;9.00;7.50;;;;;;;2.88;86.04;102405.88;4943497;29;20314;-84
2023/04/05 06:09:28;;;;;;;9.23;8.05;;;;;;;2.92;86.33;102411.97;4964510;28;20046;-85
2023/04/05 06:11:55;;;;;;;9.45;8.18;;;;;;;2.92;86.49;102404.22;4979549;28;20334;-85
2023/04/05 06:14:21;;;;;;;11.00;8.10;;;;;;;2.94;86.42;102402.53;4982231;28;20033;-85
2023/04/05 06:16:48;;;;;;;9.30;8.40;;;;;;;2.98;86.57;102408.63;4978493;28;20058;-85
2023/04/05 06:19:14;;;;;;;10.90;9.13;;;;;;;3.00;86.67;102404.34;4945616;28;20031;-85
2023/04/05 06:21:39;;;;;;;11.57;9.63;;;;;;;3.02;86.88;102410.41;4966926;28;20064;-85
2023/04/05 06:24:05;;;;;;;11.88;9.05;;;;;;;3.02;87.04;102405.22;4989823;28;20042;-85
2023/04/05 06:26:30;;;;;;;12.55;9.43;;;;;;;3.05;87.29;102415.63;4974544;28;20034;-85
2023/04/05 06:28:56;;;;;;;12.35;9.75;;;;;;;3.05;87.41;102407.88;4963290;28;20042;-85
2023/04/05 06:31:29;;;;;;;13.55;10.35;;;;;;;3.08;87.46;102407.94;4983899;28;20318;-85
2023/04/05 06:33:55;;;;;;;11.85;9.52;;;;;;;3.10;87.51;102405.38;4978322;28;20057;-85
2023/04/05 06:36:20;;;;;;;13.23;9.85;;;;;;;3.11;87.84;102401.91;4976969;28;20154;-85
2023/04/05 06:38:46;;;;;;;12.88;10.27;;;;;;;3.13;88.12;102401.09;4977755;28;20038;-85
2023/04/05 06:41:20;;;;;;;12.90;10.63;;;;;;;3.17;88.31;102408.06;4942643;29;20218;-85
2023/04/05 06:43:46;;;;;;;15.30;10.98;;;;;;;3.19;88.46;102406.38;4977709;28;20046;-85
2023/04/05 06:46:12;;;;;;;19.50;11.35;;;;;;;3.22;88.72;102408.13;4977857;28;20052;-84
2023/04/05 06:48:38;;;;;;;15.80;12.02;;;;;;;3.24;89.03;102403.88;4961639;28;20053;-85
2023/04/05 06:51:04;;;;;;;13.25;10.38;;;;;;;3.25;89.36;102408.16;4974629;28;20048;-84
2023/04/05 06:53:30;;;;;;;15.30;11.55;;;;;;;3.30;89.26;102405.66;4972849;28;20038;-84
2023/04/05 06:55:57;;;;;;;15.95;11.70;;;;;;;3.32;89.55;102403.97;4974495;28;20038;-84
2023/04/05 06:58:23;;;;;;;14.05;11.60;;;;;;;3.34;89.78;102404.84;4970186;28;20061;-84
2023/04/05 07:00:49;;;;;;;14.85;11.20;;;;;;;3.36;90.04;102403.16;4976480;28;20229;-84
2023/04/05 07:03:16;;;;;;;15.00;11.75;;;;;;;3.37;90.29;102395.41;4976154;28;20150;-84
2023/04/05 07:05:49;;;;;;;17.08;11.50;;;;;;;3.42;90.25;102405.81;4978278;28;20047;-84
2023/04/05 07:08:15;;;;;;;15.23;11.48;;;;;;;3.44;90.75;102396.38;4971688;28;20340;-84
2023/04/05 07:10:40;;;;;;;15.30;11.38;;;;;;;3.46;90.87;102398.13;4976575;28;20038;-84
2023/04/05 07:13:06;;;;;;;16.42;11.80;;;;;;;3.49;91.16;102396.44;4976405;28;20034;-84
2023/04/05 07:15:32;;;;;;;13.98;11.43;;;;;;;3.51;91.19;102385.25;4944709;28;20047;-84
2023/04/05 07:17:57;;;;;;;16.90;12.43;;;;;;;3.54;91.38;102385.28;4976523;28;20132;-84
2023/04/05 07:20:22;;;;;;;13.68;11.73;;;;;;;3.59;91.46;102395.72;4961790;28;20282;-84
2023/04/05 07:22:48;;;;;;;14.60;11.43;;;;;;;3.60;91.52;102390.56;4972994;28;20105;-84
2023/04/05 07:25:14;;;;;;;14.93;11.65;;;;;;;3.63;91.78;102390.56;4960530;28;20030;-84
2023/04/05 07:27:39;;;;;;;14.57;11.50;;;;;;;3.65;91.87;102399.22;4959293;28;20082;-84
2023/04/05 07:30:05;;;;;;;13.48;11.32;;;;;;;3.70;92.06;102388.06;4959176;28;20334;-84
2023/04/05 07:32:32;;;;;;;13.98;11.80;;;;;;;3.71;92.19;102389.78;4979363;28;20047;-84
2023/04/05 07:34:58;;;;;;;13.98;11.27;;;;;;;3.74;92.42;102390.72;4976236;28;20067;-84
2023/04/05 07:37:23;;;;;;;16.20;12.20;;;;;;;3.77;92.51;102385.56;4944942;28;20354;-84
2023/04/05 07:39:49;;;;;;;16.88;12.40;;;;;;;3.79;92.75;102383.88;4974888;28;20058;-84
2023/04/05 07:42:16;;;;;;;14.80;11.95;;;;;;;3.82;92.82;102375.25;4957563;28;20113;-84
2023/04/05 07:44:42;;;;;;;14.10;11.65;;;;;;;3.84;92.95;102374.44;4979906;28;20061;-84
2023/04/05 07:47:07;;;;;;;16.67;12.43;;;;;;;3.90;92.97;102372.78;4942253;28;20330;-84
2023/04/05 07:49:33;;;;;;;23.63;13.77;;;;;;;3.91;93.33;102369.31;4975765;28;20384;-84
2023/04/05 07:51:59;;;;;;;17.30;12.63;;;;;;;3.95;93.48;102373.69;4960069;28;20314;-84
2023/04/05 07:54:27;;;;;;;18.85;12.73;;;;;;;3.97;93.66;102374.56;4950969;28;20493;-84
2023/04/05 07:56:54;;;;;;;15.50;12.13;;;;;;;3.99;93.54;102371.13;4957074;28;20379;-85
2023/04/05 07:59:19;;;;;;;15.07;11.52;;;;;;;4.02;93.56;102370.28;4963791;28;20038;-84
2023/04/05 08:01:48;;;;;;;15.02;12.00;;;;;;;4.04;93.45;102366.88;4959610;28;20079;-84
2023/04/05 08:04:17;;;;;;;13.80;10.63;;;;;;;4.05;93.02;102365.16;4981482;28;20211;-84
2023/04/05 08:06:46;;;;;;;14.40;11.15;;;;;;;4.08;93.21;102361.75;4980744;28;20389;-85
2023/04/05 08:09:15;;;;;;;15.10;11.93;;;;;;;4.13;93.21;102360.94;4959578;28;20258;-84
2023/04/05 08:11:46;;;;;;;12.68;11.38;;;;;;;4.15;92.85;102361.81;4958400;28;20409;-84
2023/04/05 08:14:12;;;;;;;14.55;11.43;;;;;;;4.18;92.49;102363.56;4958008;28;20260;-84
2023/04/05 08:16:37;;;;;;;12.65;10.50;;;;;;;4.18;92.32;102361.84;4977424;28;20058;-84
2023/04/05 08:19:03;;;;;;;14.00;10.70;;;;;;;4.21;91.60;102368.78;4944265;28;20039;-84
2023/04/05 08:21:28;;;;;;;14.10;10.30;;;;;;;4.25;91.40;102360.16;4977162;28;20023;-84
2023/04/05 08:23:53;;;;;;;12.07;9.80;;;;;;;4.28;90.72;102368.00;4975906;28;20062;-85
2023/04/05 08:26:19;;;;;;;13.02;9.20;;;;;;;4.28;88.28;102359.34;4976781;28;20037;-85
2023/04/05 08:28:45;;;;;;;16.42;9.85;;;;;;;4.31;86.73;102361.94;4992879;28;20352;-85
2023/04/05 08:31:11;;;;;;;13.15;9.30;;;;;;;4.36;86.47;102360.28;4986403;28;20031;-84
2023/04/05 08:33:36;;;;;;;13.98;9.20;;;;;;;4.38;86.54;102354.25;4979759;28;20110;-85
2023/04/05 08:36:06;;;;;;;11.70;9.27;;;;;;;4.41;83.97;102361.19;4971799;28;20149;-85
2023/04/05 08:38:32;;;;;;;8.55;7.65;;;;;;;4.43;83.76;102352.56;4984427;28;20041;-85
2023/04/05 08:41:06;;;;;;;11.05;8.27;;;;;;;4.48;81.64;102356.94;4961537;28;20114;-85
2023/04/05 08:43:50;;;;;;;8.98;7.13;;;;;;;4.53;78.40;102363.00;4979259;28;20038;-84
2023/04/05 08:46:17;;;;;;;11.35;8.02;;;;;;;4.55;76.56;102358.72;4982071;28;20041;-85
2023/04/05 08:48:43;;;;;;;11.30;7.80;;;;;;;4.60;76.07;102357.03;4982362;28;20314;-84
2023/04/05 08:51:09;;;;;;;14.07;7.38;;;;;;;4.64;72.43;102357.91;4964458;28;20106;-84
2023/04/05 08:53:35;;;;;;;11.18;7.68;;;;;;;4.69;71.62;102357.09;4980081;28;20070;-84
2023/04/05 08:56:01;;;;;;;12.38;8.00;;;;;;;4.74;73.27;102358.00;4963674;28;20085;-84
2023/04/05 08:58:27;;;;;;;9.25;7.40;;;;;;;4.78;72.90;102356.31;4983288;28;20030;-84
2023/04/05 09:00:55;;;;;;;11.48;8.18;;;;;;;4.83;70.03;102354.63;4980802;28;20043;-84
2023/04/05 09:03:22;;;;;;;13.75;7.43;;;;;;;4.89;71.22;102362.44;4980705;28;20042;-84
2023/04/05 09:05:50;;;;;;;9.55;7.32;;;;;;;4.94;71.78;102355.56;4989875;28;20038;-84
2023/04/05 09:08:16;;;;;;;11.65;7.53;;;;;;;4.98;72.35;102349.56;4981292;28;20072;-85
2023/04/05 09:10:42;;;;;;;9.98;6.97;;;;;;;4.98;71.50;102354.75;4978517;28;20514;-84
2023/04/05 09:13:08;;;;;;;10.77;7.35;;;;;;;5.02;71.00;102360.81;4966250;28;20030;-84
2023/04/05 09:15:37;;;;;;;9.13;7.30;;;;;;;5.05;70.84;102346.97;4980204;28;20421;-84
2023/04/05 09:18:03;;;;;;;9.82;7.60;;;;;;;5.12;70.65;102357.41;4978928;28;20064;-84
2023/04/05 09:20:29;;;;;;;14.40;7.65;;;;;;;5.16;69.98;102350.50;4980417;28;20116;-85
2023/04/05 09:22:58;;;;;;;11.20;7.53;;;;;;;5.21;69.42;102354.00;4982459;28;20038;-85
2023/04/05 09:25:38;;;;;;;18.20;7.15;;;;;;;5.24;68.68;102343.66;4977959;28;20042;-84
2023/04/05 09:28:05;;;;;;;17.95;7.75;;;;;;;5.30;69.30;102348.84;4981779;28;20035;-84
2023/04/05 09:30:31;;;;;;;18.10;8.73;;;;;;;5.36;69.77;102345.41;4978866;28;20027;-84
2023/04/05 09:32:57;;;;;;;11.05;8.07;;;;;;;5.39;70.11;102345.44;4978499;28;20097;-84
2023/04/05 09:35:26;;;;;;;15.73;8.52;;;;;;;5.42;70.49;102342.88;4989424;28;20365;-84
2023/04/05 09:37:53;;;;;;;9.10;7.55;;;;;;;5.47;70.56;102345.47;4979024;28;20039;-84
2023/04/05 09:40:19;;;;;;;10.48;8.18;;;;;;;5.50;70.95;102335.09;4963871;28;20102;-84
2023/04/05 09:42:45;;;;;;;9.40;7.80;;;;;;;5.53;66.14;102340.28;4978131;28;20069;-84
2023/04/05 09:45:11;;;;;;;9.80;8.07;;;;;;;5.61;65.10;102338.63;4986963;28;20034;-84
2023/04/05 09:47:37;;;;;;;16.55;8.63;;;;;;;5.69;64.90;102341.22;4987025;28;20034;-84
2023/04/05 09:50:17;;;;;;;13.00;8.63;;;;;;;5.74;66.45;102337.78;4978489;28;20070;-84
2023/04/05 09:52:43;;;;;;;10.68;8.13;;;;;;;5.80;67.97;102331.72;4978695;28;20039;-84
2023/04/05 09:55:09;;;;;;;10.40;6.95;;;;;;;5.82;63.69;102339.53;4980108;28;20031;-84
2023/04/05 09:57:38;;;;;;;9.60;7.45;;;;;;;5.85;65.46;102335.22;4978633;28;20457;-85
2023/04/05 10:00:05;;;;;;;13.43;8.30;;;;;;;5.93;63.87;102332.63;4978265;28;20106;-85
2023/04/05 10:02:38;;;;;;;10.30;7.78;;;;;;;5.98;62.89;102325.75;4986554;28;20029;-84
2023/04/05 10:05:12;;;;;;;12.52;8.13;;;;;;;6.06;63.76;102321.44;4982722;28;20042;-84
2023/04/05 10:07:38;;;;;;;13.15;8.05;;;;;;;6.12;63.79;102321.44;4990222;28;20308;-85
2023/04/05 10:10:04;;;;;;;13.10;8.63;;;;;;;6.19;64.36;102316.28;4962555;28;20038;-84
2023/04/05 10:12:31;;;;;;;13.18;8.45;;;;;;;6.28;65.96;102316.28;4987004;28;20034;-84
2023/04/05 10:14:58;;;;;;;12.77;8.07;;;;;;;6.37;67.57;102318.88;4958746;28;20059;-84
2023/04/05 10:17:30;;;;;;;11.30;8.45;;;;;;;6.45;67.55;102316.28;4985077;28;20045;-84
2023/04/05 10:20:19;;;;;;;13.98;8.25;;;;;;;6.48;65.48;102313.69;4978075;28;20035;-84
2023/04/05 10:22:50;;;;;;;;;;;;;;;6.52;65.99;102320.63;4974850;28;20334;-84
2023/04/05 10:25:44;;;;;;;11.65;8.23;;;;;;;6.53;63.68;102310.22;4986221;28;20001;-84
2023/04/05 10:28:11;;;;;;;11.00;7.88;;;;;;;6.58;64.55;102312.78;4978536;28;20058;-84
2023/04/05 10:30:46;;;;;;;13.00;8.23;;;;;;;6.62;66.13;102309.34;4977336;28;20039;-84
2023/04/05 10:33:32;;;;;;;8.70;7.68;;;;;;;6.65;66.45;102305.84;4962260;28;20058;-84
2023/04/05 10:36:26;;;;;;;13.02;8.27;;;;;;;6.70;64.24;102306.72;4973384;28;20129;-84
2023/04/05 10:39:22;;;;;;;17.63;8.38;;;;;;;6.75;61.05;102314.50;4970409;28;20077;-84
2023/04/05 10:41:51;;;;;;;11.88;8.13;;;;;;;6.81;63.00;102304.97;4985078;28;20232;-84
2023/04/05 10:44:17;;;;;;;9.93;8.00;;;;;;;6.87;61.88;102309.28;4979569;28;20035;-84
2023/04/05 10:46:44;;;;;;;12.98;7.68;;;;;;;6.90;62.23;102298.88;4961377;28;20038;-84
2023/04/05 10:50:01;;;;;;;7.70;6.68;;;;;;;6.99;63.08;102303.22;4979493;28;20211;-85
2023/04/05 10:52:27;;;;;;;12.35;7.68;;;;;;;7.04;62.25;102297.13;4944605;28;20057;-84
2023/04/05 10:54:56;;;;;;;11.73;8.25;;;;;;;7.08;64.18;102295.38;4979341;28;20134;-84
2023/04/05 10:57:22;;;;;;;11.38;7.82;;;;;;;7.13;64.89;102295.34;4973646;28;20030;-84
2023/04/05 10:59:48;;;;;;;8.77;7.38;;;;;;;7.14;64.58;102295.34;4991545;28;20042;-84
2023/04/05 11:02:15;;;;;;;11.00;8.38;;;;;;;7.18;66.17;102298.81;4977711;28;20045;-85
2023/04/05 11:04:41;;;;;;;11.25;7.38;;;;;;;7.17;62.26;102289.22;4977280;28;20034;-84
2023/04/05 11:07:17;;;;;;;10.57;7.72;;;;;;;7.21;59.53;102280.56;4977689;28;20153;-84
2023/04/05 11:10:00;;;;;;;14.88;8.13;;;;;;;7.27;59.03;102280.53;4977235;28;20027;-86
2023/04/05 11:12:44;;;;;;;9.75;7.90;;;;;;;7.33;60.27;102283.13;4977412;28;20150;-86
2023/04/05 11:15:36;;;;;;;12.13;7.88;;;;;;;7.37;60.03;102282.22;4979123;28;20046;-86
2023/04/05 11:18:07;;;;;;;10.48;7.15;;;;;;;7.40;61.49;102276.97;4976543;28;20248;-86
2023/04/05 11:20:40;;;;;;;11.95;7.80;;;;;;;7.43;59.45;102274.38;4979079;28;20034;-86
2023/04/05 11:23:06;;;;;;;10.20;7.63;;;;;;;7.46;56.11;102271.75;4988827;28;20037;-86
2023/04/05 11:25:37;;;;;;;13.68;7.93;;;;;;;7.49;59.59;102268.25;4961739;28;20298;-86
2023/04/05 11:28:04;;;;;;;10.90;7.13;;;;;;;7.57;60.47;102278.69;4981101;28;20031;-86
2023/04/05 11:30:55;;;;;;;9.20;7.47;;;;;;;7.62;57.68;102274.28;4976945;28;20035;-86
2023/04/05 11:33:38;;;;;;;10.32;7.13;;;;;;;7.66;56.54;102270.81;4976900;28;20133;-86